ESOK Airport Information

Runway Information
Runway 03 Length 8255 ft width 148 ft
Elevation 332 ft Threshold 0 ft Heading 26
Runway 21 Length 8255 ft Width 148 ft
Elevation 352 ft Threshold 0 ft Heading 206
Runway 03L Length 1840 ft width 170 ft
Elevation 0 ft Threshold 0 ft Heading 26
Runway 21R Length 1840 ft Width 170 ft
Elevation 0 ft Threshold 0 ft Heading 206
Airport Frequencies
Type TWR Name TWR Frequency 119.45 MHZ
Airport Navaids
Type VOR-DME Name Karlstad Frequency 117800 KHZ
Airport Weather Information & NOTAM
ADDS - METARS form results

(2310 UTC 19 September 2018)
Data provider http://aviationweather.gov/metar/data/
 
METAR text: ESOK 192250Z AUTO 19019KT 9999 FEW021/// SCT026/// BKN030/// 16/14 Q1002
Conditions at: ESOK (KARLSTAD NORTH , SE) observed 2250 UTC 19 September 2018
Temperature: 16.0°C (61°F)
Dewpoint: 14.0°C (57°F) [RH = 88%]
Pressure (altimeter): 29.59 inches Hg (1002.0 mb)
Winds: from the S (190 degrees) at 22 MPH (19 knots; 9.8 m/s)
Visibility: 6 or more miles (10+ km)
Ceiling: 3000 feet AGL
Clouds: few clouds at 2100 feet AGL
scattered clouds at 2600 feet AGL
broken clouds at 3000 feet AGL
Weather: no significant weather observed at this time

METAR text: ESOK 192220Z AUTO 19018KT 9999 FEW020/// BKN029/// OVC040/// 17/13 Q1002
Conditions at: ESOK (KARLSTAD NORTH , SE) observed 2220 UTC 19 September 2018
Temperature: 17.0°C (63°F)
Dewpoint: 13.0°C (55°F) [RH = 77%]
Pressure (altimeter): 29.59 inches Hg (1002.0 mb)
Winds: from the S (190 degrees) at 21 MPH (18 knots; 9.3 m/s)
Visibility: 6 or more miles (10+ km)
Ceiling: 2900 feet AGL
Clouds: few clouds at 2000 feet AGL
broken clouds at 2900 feet AGL
overcast cloud deck at 4000 feet AGL
Weather: no significant weather observed at this time

Forecast for: ESOK (KARLSTAD NORTH , SE)
Text: TAF ESOK 191730Z 1918/1921 20012KT 9999 SCT030
Forecast period: 1800 to 2100 UTC 19 September 2018
Forecast type: FROM: standard forecast or significant change
Winds: from the SSW (200 degrees) at 14 MPH (12 knots; 6.2 m/s)
Visibility: 6 or more miles 10+ km)
Ceiling: at least 12,000 feet AGL
Clouds: scattered clouds at 3000 feet AGL
Weather: no significant weather forecast for this period